createdAt,value
2019-05-12T00:00:39.222Z,1015.72
2019-05-12T00:01:38.921Z,1015.66
2019-05-12T00:02:39.711Z,1015.66
2019-05-12T00:03:38.133Z,1015.72
2019-05-12T00:04:38.571Z,1015.67
2019-05-12T00:05:38.391Z,1015.69
2019-05-12T00:06:38.735Z,1015.67
2019-05-12T00:07:38.418Z,1015.71
2019-05-12T00:08:38.254Z,1015.70
2019-05-12T00:09:38.827Z,1015.70
2019-05-12T00:10:38.762Z,1015.71
2019-05-12T00:11:38.172Z,1015.75
2019-05-12T00:12:38.674Z,1015.73
2019-05-12T00:13:38.619Z,1015.81
2019-05-12T00:14:38.262Z,1015.81
2019-05-12T00:15:38.625Z,1015.76
2019-05-12T00:16:38.582Z,1015.79
2019-05-12T00:17:38.829Z,1015.84
2019-05-12T00:18:38.196Z,1015.87
2019-05-12T00:19:38.208Z,1015.84
2019-05-12T00:20:38.754Z,1015.87
2019-05-12T00:21:39.952Z,1015.87
2019-05-12T00:22:38.224Z,1015.92
2019-05-12T00:23:38.271Z,1015.91
2019-05-12T00:24:38.398Z,1015.92
2019-05-12T00:25:38.762Z,1015.96
2019-05-12T00:26:38.378Z,1015.95
2019-05-12T00:27:38.742Z,1015.97
2019-05-12T00:28:38.261Z,1015.99
2019-05-12T00:29:38.272Z,1016.05
2019-05-12T00:30:39.008Z,1015.99
2019-05-12T00:31:38.355Z,1016.05
2019-05-12T00:32:38.669Z,1016.03
2019-05-12T00:33:38.581Z,1016.02
2019-05-12T00:34:38.571Z,1016.07
2019-05-12T00:35:38.344Z,1016.05
2019-05-12T00:36:38.375Z,1016.09
2019-05-12T00:37:38.379Z,1016.04
2019-05-12T00:38:38.335Z,1016.07
2019-05-12T00:39:38.341Z,1016.08
2019-05-12T00:40:39.256Z,1016.08
2019-05-12T00:41:38.921Z,1016.11
2019-05-12T00:42:38.394Z,1016.12
2019-05-12T00:43:38.362Z,1016.10
2019-05-12T00:44:39.078Z,1016.17
2019-05-12T00:45:38.809Z,1016.17
2019-05-12T00:46:38.639Z,1016.15
2019-05-12T00:47:39.028Z,1016.13
2019-05-12T00:48:38.378Z,1016.15
2019-05-12T00:49:38.414Z,1016.17
2019-05-12T00:50:38.618Z,1016.17
2019-05-12T00:51:38.605Z,1016.17
2019-05-12T00:52:38.741Z,1016.18
2019-05-12T00:53:43.189Z,1016.19
2019-05-12T00:54:38.420Z,1016.21
2019-05-12T00:55:38.598Z,1016.20
2019-05-12T00:56:39.213Z,1016.20
2019-05-12T00:57:38.475Z,1016.20
2019-05-12T00:58:38.445Z,1016.26
2019-05-12T00:59:38.472Z,1016.28
2019-05-12T01:00:40.631Z,1016.32
2019-05-12T01:01:38.476Z,1016.26
2019-05-12T01:02:38.485Z,1016.33
2019-05-12T01:03:38.497Z,1016.27
2019-05-12T01:04:38.538Z,1016.36
2019-05-12T01:05:38.773Z,1016.32
2019-05-12T01:06:38.818Z,1016.37
2019-05-12T01:07:38.514Z,1016.37
2019-05-12T01:08:38.506Z,1016.32
2019-05-12T01:09:38.642Z,1016.39
2019-05-12T01:10:39.181Z,1016.43
2019-05-12T01:11:38.552Z,1016.40
2019-05-12T01:12:38.515Z,1016.42
2019-05-12T01:13:38.557Z,1016.38
2019-05-12T01:14:38.553Z,1016.34
2019-05-12T01:15:38.538Z,1016.47
2019-05-12T01:16:38.824Z,1016.40
2019-05-12T01:17:40.533Z,1016.49
2019-05-12T01:18:38.569Z,1016.47
2019-05-12T01:19:40.522Z,1016.48
2019-05-12T01:20:39.195Z,1016.48
2019-05-12T01:21:38.568Z,1016.49
2019-05-12T01:22:38.576Z,1016.42
2019-05-12T01:23:53.457Z,1016.50
2019-05-12T01:24:38.665Z,1016.51
2019-05-12T01:25:39.708Z,1016.53
2019-05-12T01:26:38.975Z,1016.53
2019-05-12T01:27:38.610Z,1016.63
2019-05-12T01:28:38.611Z,1016.61
2019-05-12T01:29:38.669Z,1016.57
2019-05-12T01:30:39.285Z,1016.60
2019-05-12T01:31:38.633Z,1016.57
2019-05-12T01:32:38.645Z,1016.62
2019-05-12T01:33:38.651Z,1016.67
2019-05-12T01:34:38.654Z,1016.63
2019-05-12T01:35:39.209Z,1016.60
2019-05-12T01:36:38.686Z,1016.68
2019-05-12T01:37:38.673Z,1016.71
2019-05-12T01:38:38.685Z,1016.74
2019-05-12T01:39:38.693Z,1016.76
2019-05-12T01:40:39.706Z,1016.78
2019-05-12T01:41:38.961Z,1016.75
2019-05-12T01:42:38.697Z,1016.75
2019-05-12T01:43:38.721Z,1016.84
2019-05-12T01:44:38.715Z,1016.79
2019-05-12T01:45:38.736Z,1016.80
2019-05-12T01:46:38.773Z,1016.82
2019-05-12T01:47:38.740Z,1016.85
2019-05-12T01:48:38.742Z,1016.88
2019-05-12T01:49:38.746Z,1016.89
2019-05-12T01:50:39.102Z,1016.85
2019-05-12T01:51:38.798Z,1016.94
2019-05-12T01:52:38.879Z,1017.04
2019-05-12T01:53:38.783Z,1017.02
2019-05-12T01:54:38.759Z,1017.01
2019-05-12T01:55:39.218Z,1017.00
2019-05-12T01:56:38.788Z,1017.02
2019-05-12T01:57:38.875Z,1017.09
2019-05-12T01:58:38.801Z,1017.10
2019-05-12T01:59:38.800Z,1017.02
2019-05-12T02:00:39.376Z,1017.05
2019-05-12T02:01:39.133Z,1017.08
2019-05-12T02:02:38.841Z,1017.16
2019-05-12T02:03:38.841Z,1017.15
2019-05-12T02:04:38.817Z,1017.12
2019-05-12T02:05:38.835Z,1017.12
2019-05-12T02:06:38.924Z,1017.16
2019-05-12T02:07:38.839Z,1017.16
2019-05-12T02:08:38.891Z,1017.17
2019-05-12T02:09:38.870Z,1017.19
2019-05-12T02:10:39.118Z,1017.23
2019-05-12T02:11:38.869Z,1017.24
2019-05-12T02:12:38.869Z,1017.26
2019-05-12T02:13:38.880Z,1017.30
2019-05-12T02:14:38.940Z,1017.25
2019-05-12T02:15:38.886Z,1017.30
2019-05-12T02:16:38.976Z,1017.33
2019-05-12T02:17:39.284Z,1017.31
2019-05-12T02:18:38.904Z,1017.41
2019-05-12T02:19:38.925Z,1017.42
2019-05-12T02:20:38.929Z,1017.43
2019-05-12T02:21:38.931Z,1017.38
2019-05-12T02:22:39.014Z,1017.42
2019-05-12T02:23:38.948Z,1017.41
2019-05-12T02:24:39.155Z,1017.42
2019-05-12T02:25:39.001Z,1017.40
2019-05-12T02:26:38.951Z,1017.46
2019-05-12T02:27:38.966Z,1017.48
2019-05-12T02:28:39.569Z,1017.40
2019-05-12T02:29:38.992Z,1017.49
2019-05-12T02:30:41.434Z,1017.47
2019-05-12T02:31:39.969Z,1017.45
2019-05-12T02:32:48.648Z,1017.41
2019-05-12T02:33:39.037Z,1017.44
2019-05-12T02:34:39.022Z,1017.47
2019-05-12T02:35:39.010Z,1017.44
2019-05-12T02:36:39.022Z,1017.45
2019-05-12T02:37:39.017Z,1017.45
2019-05-12T02:38:39.027Z,1017.49
2019-05-12T02:39:39.058Z,1017.45
2019-05-12T02:40:39.059Z,1017.45
2019-05-12T02:41:39.061Z,1017.43
2019-05-12T02:42:39.050Z,1017.46
2019-05-12T02:43:39.068Z,1017.43
2019-05-12T02:44:39.089Z,1017.50
2019-05-12T02:45:39.106Z,1017.49
2019-05-12T02:46:39.080Z,1017.54
2019-05-12T02:47:39.197Z,1017.52
2019-05-12T02:48:39.096Z,1017.55
2019-05-12T02:49:39.109Z,1017.56
2019-05-12T02:50:39.091Z,1017.57
2019-05-12T02:51:39.123Z,1017.59
2019-05-12T02:52:39.110Z,1017.57
2019-05-12T02:53:39.107Z,1017.60
2019-05-12T02:54:51.806Z,1017.60
2019-05-12T02:55:39.111Z,1017.68
2019-05-12T02:56:39.154Z,1017.64
2019-05-12T02:57:39.122Z,1017.67
2019-05-12T02:58:39.148Z,1017.63
2019-05-12T02:59:39.149Z,1017.61
2019-05-12T03:00:39.145Z,1017.64
2019-05-12T03:01:39.190Z,1017.66
2019-05-12T03:02:39.163Z,1017.66
2019-05-12T03:03:39.177Z,1017.71
2019-05-12T03:04:39.165Z,1017.65
2019-05-12T03:05:39.186Z,1017.69
2019-05-12T03:06:39.194Z,1017.77
2019-05-12T03:07:39.234Z,1017.65
2019-05-12T03:08:39.219Z,1017.66
2019-05-12T03:09:39.193Z,1017.68
2019-05-12T03:10:39.206Z,1017.73
2019-05-12T03:11:39.309Z,1017.74
2019-05-12T03:12:39.229Z,1017.75
2019-05-12T03:13:39.226Z,1017.77
2019-05-12T03:14:40.896Z,1017.78
2019-05-12T03:15:39.225Z,1017.86
2019-05-12T03:16:39.234Z,1017.86
2019-05-12T03:17:39.305Z,1017.85
2019-05-12T03:18:39.253Z,1017.86
2019-05-12T03:19:39.275Z,1017.83
2019-05-12T03:20:39.311Z,1017.92
2019-05-12T03:21:39.269Z,1017.89
2019-05-12T03:22:39.276Z,1017.90
2019-05-12T03:23:39.294Z,1017.86
2019-05-12T03:24:39.276Z,1017.89
2019-05-12T03:25:39.282Z,1017.97
2019-05-12T03:26:39.290Z,1017.96
2019-05-12T03:27:39.296Z,1017.97
2019-05-12T03:28:39.329Z,1018.14
2019-05-12T03:29:39.314Z,1018.02
2019-05-12T03:30:41.030Z,1018.07
2019-05-12T03:31:40.957Z,1018.08
2019-05-12T03:32:39.340Z,1018.02
2019-05-12T03:33:43.659Z,1017.99
2019-05-12T03:34:39.383Z,1018.05
2019-05-12T03:35:43.888Z,1018.07
2019-05-12T03:36:42.646Z,1017.96
2019-05-12T03:37:39.359Z,1018.12
2019-05-12T03:38:39.423Z,1018.03
2019-05-12T03:39:39.415Z,1017.99
2019-05-12T03:40:39.373Z,1018.03
2019-05-12T03:41:39.381Z,1018.02
2019-05-12T03:42:39.396Z,1018.07
2019-05-12T03:43:39.391Z,1018.12
2019-05-12T03:44:39.389Z,1018.11
2019-05-12T03:45:39.435Z,1018.06
2019-05-12T03:46:39.523Z,1018.15
2019-05-12T03:47:39.412Z,1018.16
2019-05-12T03:48:39.419Z,1018.17
2019-05-12T03:49:39.417Z,1018.20
2019-05-12T03:50:39.422Z,1018.22
2019-05-12T03:51:39.433Z,1018.25
2019-05-12T03:52:39.458Z,1018.39
2019-05-12T03:53:39.455Z,1018.28
2019-05-12T03:54:39.500Z,1018.28
2019-05-12T03:55:42.419Z,1018.35
2019-05-12T03:56:39.461Z,1018.31
2019-05-12T03:57:39.480Z,1018.35
2019-05-12T03:58:39.471Z,1018.39
2019-05-12T03:59:39.506Z,1018.42
2019-05-12T04:00:39.539Z,1018.39
2019-05-12T04:01:39.501Z,1018.36
2019-05-12T04:02:39.517Z,1018.33
2019-05-12T04:03:39.517Z,1018.43
2019-05-12T04:04:39.493Z,1018.39
2019-05-12T04:05:39.495Z,1018.43
2019-05-12T04:06:39.546Z,1018.40
2019-05-12T04:07:39.543Z,1018.45
2019-05-12T04:08:39.538Z,1018.37
2019-05-12T04:09:39.541Z,1018.47
2019-05-12T04:10:39.565Z,1018.49
2019-05-12T04:11:39.634Z,1018.46
2019-05-12T04:12:39.566Z,1018.54
2019-05-12T04:13:39.580Z,1018.58
2019-05-12T04:14:39.553Z,1018.60
2019-05-12T04:15:39.561Z,1018.63
2019-05-12T04:16:39.597Z,1018.69
2019-05-12T04:17:39.574Z,1018.74
2019-05-12T04:18:39.583Z,1018.76
2019-05-12T04:19:39.586Z,1018.73
2019-05-12T04:20:39.594Z,1018.72
2019-05-12T04:21:39.731Z,1018.78
2019-05-12T04:22:39.617Z,1018.74
2019-05-12T04:23:39.617Z,1018.76
2019-05-12T04:24:39.622Z,1018.79
2019-05-12T04:25:52.621Z,1018.81
2019-05-12T04:26:39.643Z,1018.89
2019-05-12T04:27:39.639Z,1019.01
2019-05-12T10:01:08.307Z,1022.68
2019-05-12T10:02:10.527Z,1022.71
2019-05-12T10:03:08.778Z,1022.60
2019-05-12T10:04:10.380Z,1022.55
2019-05-12T10:05:08.319Z,1022.61
2019-05-12T10:06:11.350Z,1022.55
2019-05-12T10:07:08.313Z,1022.57
2019-05-12T10:08:08.320Z,1022.63
2019-05-12T10:09:13.708Z,1022.60
2019-05-12T10:10:08.353Z,1022.63
2019-05-12T10:11:10.183Z,1022.54
2019-05-12T10:12:08.357Z,1022.60
2019-05-12T10:13:08.414Z,1022.64
2019-05-12T10:14:10.818Z,1022.62
2019-05-12T10:15:08.532Z,1022.61
2019-05-12T10:16:08.900Z,1022.63
2019-05-12T10:17:08.388Z,1022.52
2019-05-12T10:18:11.186Z,1022.52
2019-05-12T10:19:08.451Z,1022.56
2019-05-12T10:20:08.412Z,1022.54
2019-05-12T10:21:10.070Z,1022.72
2019-05-12T10:22:08.442Z,1022.76
2019-05-12T10:23:10.322Z,1022.51
2019-05-12T10:24:08.441Z,1022.55
2019-05-12T10:25:08.758Z,1022.64
2019-05-12T10:26:11.595Z,1022.50
2019-05-12T10:27:08.475Z,1022.67
2019-05-12T10:28:13.132Z,1022.64
2019-05-12T10:29:19.606Z,1022.57
2019-05-12T10:30:12.302Z,1022.61
2019-05-12T10:31:08.461Z,1022.65
2019-05-12T10:32:10.359Z,1022.60
2019-05-12T10:33:08.476Z,1022.54
2019-05-12T10:34:08.608Z,1022.56
2019-05-12T10:35:12.514Z,1022.59
2019-05-12T10:36:08.699Z,1022.62
2019-05-12T10:37:08.538Z,1022.57
2019-05-12T10:38:10.683Z,1022.59
2019-05-12T10:39:08.701Z,1022.56
2019-05-12T10:40:08.527Z,1022.60
2019-05-12T10:41:08.530Z,1022.59
2019-05-12T10:42:08.608Z,1022.57
2019-05-12T10:43:08.559Z,1022.64
2019-05-12T10:44:08.598Z,1022.74
2019-05-12T10:45:10.715Z,1022.64
2019-05-12T10:46:08.626Z,1022.67
2019-05-12T10:47:08.583Z,1022.66
2019-05-12T10:48:08.842Z,1022.62
2019-05-12T10:49:08.588Z,1022.59
2019-05-12T10:50:08.601Z,1022.67
2019-05-12T10:51:08.619Z,1022.95
2019-05-12T10:52:08.641Z,1022.77
2019-05-12T10:53:09.846Z,1022.88
2019-05-12T10:54:13.101Z,1022.79
2019-05-12T10:55:08.660Z,1022.83
2019-05-12T10:56:08.652Z,1022.76
2019-05-12T10:57:08.647Z,1022.78
2019-05-12T10:58:08.665Z,1022.76
2019-05-12T10:59:08.707Z,1022.73
2019-05-12T11:00:08.702Z,1022.84
2019-05-12T11:01:08.773Z,1022.74
2019-05-12T11:02:08.710Z,1022.79
2019-05-12T11:03:12.239Z,1022.86
2019-05-12T11:04:08.731Z,1022.72
2019-05-12T11:05:12.587Z,1022.68
2019-05-12T11:06:08.734Z,1022.85
2019-05-12T11:07:08.721Z,1022.82
2019-05-12T11:08:10.955Z,1022.74
2019-05-12T11:09:08.766Z,1022.78
2019-05-12T11:10:15.308Z,1022.73
2019-05-12T11:11:08.752Z,1022.83
2019-05-12T11:12:08.767Z,1022.82
2019-05-12T11:13:10.036Z,1022.82
2019-05-12T11:14:08.889Z,1022.97
2019-05-12T11:15:08.805Z,1022.92
2019-05-12T11:16:08.795Z,1022.92
2019-05-12T11:17:09.548Z,1022.88
2019-05-12T11:18:08.867Z,1023.00
2019-05-12T11:19:10.519Z,1022.88
2019-05-12T11:20:08.841Z,1022.95
2019-05-12T11:21:08.866Z,1023.04
2019-05-12T11:22:08.912Z,1023.10
2019-05-12T11:23:08.848Z,1023.34
2019-05-12T11:24:08.935Z,1023.09
2019-05-12T11:25:08.888Z,1023.10
2019-05-12T11:26:08.874Z,1023.14
2019-05-12T11:27:09.016Z,1023.15
2019-05-12T11:28:08.876Z,1023.21
2019-05-12T11:29:08.899Z,1023.10
2019-05-12T11:30:08.974Z,1023.13
2019-05-12T11:31:08.907Z,1023.08
2019-05-12T11:32:08.922Z,1023.42
2019-05-12T11:33:08.921Z,1023.18
2019-05-12T11:34:08.926Z,1023.38
2019-05-12T11:35:08.921Z,1023.04
2019-05-12T11:36:08.966Z,1023.09
2019-05-12T11:37:08.953Z,1023.09
2019-05-12T11:38:08.952Z,1023.11
2019-05-12T11:39:08.961Z,1023.10
2019-05-12T11:40:09.022Z,1023.18
2019-05-12T11:41:10.005Z,1023.08
2019-05-12T11:42:08.981Z,1023.10
2019-05-12T11:43:09.120Z,1023.05
2019-05-12T11:44:09.001Z,1023.08
2019-05-12T11:45:09.010Z,1023.05
2019-05-12T11:46:09.048Z,1023.02
2019-05-12T11:47:14.067Z,1023.20
2019-05-12T11:48:10.397Z,1023.04
2019-05-12T11:49:09.675Z,1023.09
2019-05-12T11:50:10.062Z,1023.12
2019-05-12T11:51:09.064Z,1023.34
2019-05-12T11:52:13.361Z,1023.26
2019-05-12T11:53:09.089Z,1023.32
2019-05-12T11:54:10.670Z,1023.24
2019-05-12T11:55:09.112Z,1023.26
2019-05-12T11:56:09.348Z,1023.21
2019-05-12T11:57:09.123Z,1023.37
2019-05-12T11:58:11.366Z,1023.37
2019-05-12T11:59:09.126Z,1023.28
2019-05-12T12:00:09.120Z,1023.19
2019-05-12T12:01:09.183Z,1023.21
2019-05-12T12:02:09.562Z,1023.46
2019-05-12T12:03:13.375Z,1023.21
2019-05-12T12:04:09.144Z,1023.35
2019-05-12T12:05:09.176Z,1023.27
2019-05-12T12:06:09.164Z,1023.39
2019-05-12T12:07:09.188Z,1023.22
2019-05-12T12:08:09.246Z,1023.30
2019-05-12T12:09:14.456Z,1023.34
2019-05-12T12:10:09.216Z,1023.26
2019-05-12T12:11:10.447Z,1023.35
2019-05-12T12:12:09.246Z,1023.33
2019-05-12T12:13:09.264Z,1023.41
2019-05-12T12:14:10.673Z,1023.40
2019-05-12T12:15:09.288Z,1023.64
2019-05-12T12:16:11.237Z,1023.59
2019-05-12T12:17:09.306Z,1023.54
2019-05-12T12:18:13.734Z,1023.37
2019-05-12T12:19:09.285Z,1023.48
2019-05-12T12:20:14.047Z,1023.42
2019-05-12T12:21:09.283Z,1023.32
2019-05-12T12:22:09.345Z,1023.41
2019-05-12T12:23:11.261Z,1023.30
2019-05-12T12:24:09.348Z,1023.41
2019-05-12T12:25:11.041Z,1023.41
2019-05-12T12:26:09.317Z,1023.36
2019-05-12T12:27:09.339Z,1023.43
2019-05-12T12:28:09.365Z,1023.42
2019-05-12T12:29:09.343Z,1023.43
2019-05-12T12:30:18.574Z,1023.42
2019-05-12T12:31:09.388Z,1023.39
2019-05-12T12:32:09.968Z,1023.39
2019-05-12T12:33:09.410Z,1023.44
2019-05-12T12:34:09.371Z,1023.46
2019-05-12T12:35:12.965Z,1023.45
2019-05-12T12:36:09.408Z,1023.44
2019-05-12T12:37:09.406Z,1023.50
2019-05-12T12:38:09.442Z,1023.44
2019-05-12T12:39:09.433Z,1023.54
2019-05-12T12:40:09.466Z,1023.47
2019-05-12T12:41:09.464Z,1023.50
2019-05-12T12:42:09.434Z,1023.45
2019-05-12T12:43:09.454Z,1023.47
2019-05-12T12:44:09.471Z,1023.59
2019-05-12T12:45:09.480Z,1023.59
2019-05-12T12:46:10.724Z,1023.60
2019-05-12T12:47:09.471Z,1023.52
2019-05-12T12:48:09.492Z,1023.54
2019-05-12T12:49:10.511Z,1023.65
2019-05-12T12:50:09.498Z,1023.54
2019-05-12T12:51:09.529Z,1023.59
2019-05-12T12:52:09.540Z,1023.58
2019-05-12T12:53:09.529Z,1023.67
2019-05-12T12:54:09.558Z,1023.55
2019-05-12T12:55:09.553Z,1023.83
2019-05-12T12:56:09.581Z,1023.71
2019-05-12T12:57:10.161Z,1023.74
2019-05-12T12:58:09.558Z,1023.82
2019-05-12T12:59:10.509Z,1023.72
2019-05-12T13:00:09.580Z,1023.84
2019-05-12T13:01:14.187Z,1023.85
2019-05-12T13:02:09.602Z,1023.77
2019-05-12T13:03:09.656Z,1023.91
2019-05-12T13:04:09.652Z,1023.83
2019-05-12T13:05:09.619Z,1023.74
2019-05-12T13:06:09.670Z,1023.86
2019-05-12T13:07:09.637Z,1023.82
2019-05-12T13:08:09.636Z,1023.95
2019-05-12T13:09:18.493Z,1023.97
2019-05-12T13:10:09.908Z,1024.08
2019-05-12T13:11:09.685Z,1023.85
2019-05-12T13:12:15.835Z,1023.86
2019-05-12T13:13:09.691Z,1023.91
2019-05-12T13:14:09.696Z,1023.99
2019-05-12T13:15:09.805Z,1023.86
2019-05-12T13:16:09.821Z,1023.85
2019-05-12T13:17:09.717Z,1023.97
2019-05-12T13:19:16.588Z,1023.94
2019-05-12T13:20:09.746Z,1023.99
2019-05-12T13:21:09.759Z,1023.91
2019-05-12T13:22:14.955Z,1023.99
2019-05-12T13:23:09.817Z,1023.96
2019-05-12T13:24:09.761Z,1024.19
2019-05-12T13:25:09.825Z,1024.10
2019-05-12T13:26:09.796Z,1024.09
2019-05-12T13:27:09.807Z,1024.18
2019-05-12T13:28:13.301Z,1023.92
2019-05-12T13:29:09.828Z,1024.09
2019-05-12T13:30:16.344Z,1024.06
2019-05-12T13:31:15.303Z,1024.03
2019-05-12T13:32:09.828Z,1023.93
2019-05-12T13:33:15.050Z,1023.90
2019-05-12T13:34:09.882Z,1023.89
2019-05-12T13:35:15.426Z,1023.91
2019-05-12T13:36:09.855Z,1024.00
2019-05-12T13:37:15.546Z,1024.03
2019-05-12T13:38:09.904Z,1024.11
2019-05-12T13:39:11.354Z,1023.97
2019-05-12T13:40:09.906Z,1024.05
2019-05-12T13:41:15.128Z,1024.26
2019-05-12T13:42:10.334Z,1024.24
2019-05-12T13:43:15.585Z,1024.11
2019-05-12T13:44:09.920Z,1024.19
2019-05-12T13:45:13.171Z,1024.22
2019-05-12T13:46:09.982Z,1024.14
2019-05-12T13:47:09.971Z,1024.08
2019-05-12T13:48:17.331Z,1024.08
2019-05-12T13:49:09.966Z,1024.08
2019-05-12T13:50:15.896Z,1024.19
2019-05-12T13:51:13.284Z,1024.13
2019-05-12T13:52:10.007Z,1024.25
2019-05-12T13:53:10.437Z,1024.16
2019-05-12T13:54:10.033Z,1024.13
2019-05-12T13:55:10.004Z,1024.29
2019-05-12T13:56:10.025Z,1024.15
2019-05-12T13:57:13.310Z,1024.17
2019-05-12T13:58:10.081Z,1024.21
2019-05-12T13:59:12.091Z,1024.27
2019-05-12T14:00:11.062Z,1024.40
2019-05-12T14:01:16.985Z,1024.52
2019-05-12T14:02:16.242Z,1024.32
2019-05-12T14:03:10.098Z,1024.35
2019-05-12T14:04:10.202Z,1024.31
2019-05-12T14:05:14.098Z,1024.27
2019-05-12T14:06:10.132Z,1024.32
2019-05-12T14:07:15.732Z,1024.26
2019-05-12T14:08:10.117Z,1024.34
2019-05-12T14:09:10.134Z,1024.41
2019-05-12T14:10:10.189Z,1024.33
2019-05-12T14:11:10.139Z,1024.39
2019-05-12T14:12:10.156Z,1024.63
2019-05-12T14:13:10.216Z,1024.49
2019-05-12T14:14:15.269Z,1024.40
2019-05-12T14:15:10.308Z,1024.43
2019-05-12T14:16:10.198Z,1024.45
2019-05-12T14:17:10.271Z,1024.46
2019-05-12T14:18:15.100Z,1024.54
2019-05-12T14:19:10.299Z,1024.45
2019-05-12T14:20:15.796Z,1024.51
2019-05-12T14:21:10.270Z,1024.49
2019-05-12T14:22:15.160Z,1024.48
2019-05-12T14:23:10.264Z,1024.56
2019-05-12T14:24:10.318Z,1024.62
2019-05-12T14:25:10.261Z,1024.53
2019-05-12T14:26:10.265Z,1024.50
2019-05-12T14:27:10.301Z,1024.68
2019-05-12T14:28:13.465Z,1024.50
2019-05-12T14:29:10.315Z,1024.54
2019-05-12T14:30:11.676Z,1024.60
2019-05-12T14:31:22.757Z,1024.57
2019-05-12T14:32:12.074Z,1024.51
2019-05-12T14:33:10.347Z,1024.62
2019-05-12T14:34:15.794Z,1024.71
2019-05-12T14:35:10.339Z,1024.54
2019-05-12T14:36:13.653Z,1024.63
2019-05-12T14:37:10.640Z,1024.81
2019-05-12T14:38:10.393Z,1024.72
2019-05-12T14:39:10.559Z,1024.57
2019-05-12T14:40:10.419Z,1024.63
2019-05-12T14:41:11.710Z,1024.50
2019-05-12T14:42:10.397Z,1024.51
2019-05-12T14:43:15.792Z,1024.52
2019-05-12T14:44:10.417Z,1024.67
2019-05-12T14:45:10.440Z,1024.69
2019-05-12T14:46:10.647Z,1024.62
2019-05-12T14:47:10.428Z,1024.65
2019-05-12T14:48:10.446Z,1024.64
2019-05-12T14:49:10.455Z,1024.74
2019-05-12T14:50:10.486Z,1024.77
2019-05-12T14:51:10.492Z,1024.71
2019-05-12T14:52:10.478Z,1024.62
2019-05-12T14:53:10.483Z,1024.64
2019-05-12T14:54:10.491Z,1024.65
2019-05-12T14:55:10.531Z,1024.79
2019-05-12T14:56:10.500Z,1024.62
2019-05-12T14:57:10.534Z,1024.60
2019-05-12T14:58:17.709Z,1024.62
2019-05-12T14:59:10.537Z,1024.67
2019-05-12T15:00:11.395Z,1024.71
2019-05-12T15:01:10.563Z,1024.74
2019-05-12T15:02:10.563Z,1024.66
2019-05-12T15:03:15.578Z,1024.73
2019-05-12T15:04:10.589Z,1024.77
2019-05-12T15:05:10.994Z,1024.74
2019-05-12T15:06:10.624Z,1024.80
2019-05-12T15:07:10.590Z,1024.81
2019-05-12T15:08:10.609Z,1024.84
2019-05-12T15:09:16.720Z,1025.01
2019-05-12T15:10:10.636Z,1025.12
2019-05-12T15:11:10.644Z,1025.06
2019-05-12T15:12:10.639Z,1024.96
2019-05-12T15:13:10.639Z,1024.84
2019-05-12T15:14:10.651Z,1024.83
2019-05-12T15:15:15.631Z,1024.86
2019-05-12T15:16:10.699Z,1024.82
2019-05-12T15:17:13.725Z,1024.82
2019-05-12T15:18:13.162Z,1024.88
2019-05-12T15:19:10.694Z,1024.89
2019-05-12T15:20:10.910Z,1025.09
2019-05-12T15:21:10.722Z,1025.08
2019-05-12T15:22:12.432Z,1025.31
2019-05-12T15:23:10.718Z,1025.06
2019-05-12T15:24:15.237Z,1025.07
2019-05-12T15:25:10.755Z,1024.90
2019-05-12T15:26:15.732Z,1024.87
2019-05-12T15:27:13.291Z,1024.96
2019-05-12T15:28:10.764Z,1025.06
2019-05-12T15:29:13.521Z,1024.89
2019-05-12T15:30:20.212Z,1025.01
2019-05-12T15:31:10.800Z,1025.10
2019-05-12T15:32:10.872Z,1025.16
2019-05-12T15:33:10.812Z,1024.98
2019-05-12T15:34:10.815Z,1025.05
2019-05-12T15:35:10.847Z,1025.03
2019-05-12T15:36:10.887Z,1024.96
2019-05-12T15:37:11.006Z,1024.96
2019-05-12T15:38:14.714Z,1025.16
2019-05-12T15:39:10.878Z,1025.04
2019-05-12T15:40:10.853Z,1025.10
2019-05-12T15:41:15.718Z,1025.08
2019-05-12T15:42:11.020Z,1025.06
2019-05-12T15:43:10.905Z,1025.11
2019-05-12T15:44:10.882Z,1025.11
2019-05-12T15:45:12.763Z,1025.21
2019-05-12T15:46:10.913Z,1025.05
2019-05-12T15:47:11.181Z,1025.10
2019-05-12T15:48:10.956Z,1025.10
2019-05-12T15:49:10.927Z,1025.33
2019-05-12T15:50:10.949Z,1025.27
2019-05-12T15:51:10.984Z,1025.25
2019-05-12T15:52:10.952Z,1025.22
2019-05-12T15:53:13.726Z,1025.28
2019-05-12T15:54:11.788Z,1025.28
2019-05-12T15:55:13.439Z,1025.19
2019-05-12T15:56:17.626Z,1025.19
2019-05-12T15:57:13.405Z,1025.21
2019-05-12T15:58:11.050Z,1025.16
2019-05-12T15:59:11.050Z,1025.15
2019-05-12T16:00:13.885Z,1025.23
2019-05-12T16:01:11.016Z,1025.15
2019-05-12T16:02:16.259Z,1025.21
2019-05-12T16:03:11.027Z,1025.25
2019-05-12T16:04:11.983Z,1025.58
2019-05-12T16:05:11.052Z,1025.45
2019-05-12T16:06:14.636Z,1025.27
2019-05-12T16:07:11.086Z,1025.36
2019-05-12T16:08:11.080Z,1025.34
2019-05-12T16:09:13.132Z,1025.27
2019-05-12T16:10:11.101Z,1025.21
2019-05-12T16:11:11.112Z,1025.33
2019-05-12T16:12:20.057Z,1025.39
2019-05-12T16:13:11.109Z,1025.29
2019-05-12T16:14:11.113Z,1025.35
2019-05-12T16:15:16.478Z,1025.31
2019-05-12T16:16:11.166Z,1025.32
2019-05-12T16:17:11.141Z,1025.34
2019-05-12T16:18:11.142Z,1025.31
2019-05-12T16:19:11.158Z,1025.56
2019-05-12T16:20:11.174Z,1025.48
2019-05-12T16:21:11.199Z,1025.44
2019-05-12T16:22:11.209Z,1025.51
2019-05-12T16:23:15.506Z,1025.51
2019-05-12T16:24:12.551Z,1025.37
2019-05-12T16:25:11.211Z,1025.46
2019-05-12T16:26:13.089Z,1025.37
2019-05-12T16:27:11.243Z,1025.52
2019-05-12T16:28:17.125Z,1025.47
2019-05-12T16:29:11.257Z,1025.57
2019-05-12T16:30:13.602Z,1025.49
2019-05-12T16:31:11.270Z,1025.52
2019-05-12T16:32:23.806Z,1025.51
2019-05-12T16:33:14.394Z,1025.69
2019-05-12T16:34:13.715Z,1025.52
2019-05-12T16:35:11.276Z,1025.56
2019-05-12T16:36:14.274Z,1025.60
2019-05-12T16:37:11.296Z,1025.74
2019-05-12T16:38:18.005Z,1025.64
2019-05-12T16:39:13.355Z,1025.64
2019-05-12T16:40:13.437Z,1025.53
2019-05-12T16:41:14.047Z,1025.73
2019-05-12T16:42:11.393Z,1025.60
2019-05-12T16:43:11.350Z,1025.68
2019-05-12T16:44:20.823Z,1025.70
2019-05-12T16:45:11.383Z,1025.66
2019-05-12T16:46:11.400Z,1025.66
2019-05-12T23:39:14.301Z,1029.44
2019-05-12T23:40:16.565Z,1029.45
2019-05-12T23:41:13.576Z,1029.50
2019-05-12T23:42:13.620Z,1029.47
2019-05-12T23:43:14.517Z,1029.45
2019-05-12T23:44:13.545Z,1029.52
2019-05-12T23:45:13.972Z,1029.50
2019-05-12T23:46:12.927Z,1029.47
2019-05-12T23:47:12.976Z,1029.47
2019-05-12T23:48:14.264Z,1029.47
2019-05-12T23:49:14.404Z,1029.47
2019-05-12T23:50:14.147Z,1029.47
2019-05-12T23:51:14.306Z,1029.52
2019-05-12T23:52:14.071Z,1029.54
2019-05-12T23:53:13.962Z,1029.51
2019-05-12T23:54:14.382Z,1029.52
2019-05-12T23:55:13.805Z,1029.50
2019-05-12T23:56:12.973Z,1029.50
2019-05-12T23:57:15.513Z,1029.59
2019-05-12T23:58:14.409Z,1029.48
2019-05-12T23:59:13.522Z,1029.52
